sensor_id;sensor_type;location;lat;lon;timestamp;P1;durP1;ratioP1;P2;durP2;ratioP2
10387;SDS011;5240;51.128;4.566;2022-08-21T00:01:14;8.13;;;3.85;;
10387;SDS011;5240;51.128;4.566;2022-08-21T00:03:44;9.20;;;4.13;;
10387;SDS011;5240;51.128;4.566;2022-08-21T00:06:11;5.55;;;3.65;;
10387;SDS011;5240;51.128;4.566;2022-08-21T00:08:38;10.10;;;3.97;;
10387;SDS011;5240;51.128;4.566;2022-08-21T00:11:06;6.30;;;3.70;;
10387;SDS011;5240;51.128;4.566;2022-08-21T00:13:34;8.00;;;3.90;;
10387;SDS011;5240;51.128;4.566;2022-08-21T00:16:01;7.22;;;3.90;;
10387;SDS011;5240;51.128;4.566;2022-08-21T00:18:29;12.02;;;4.13;;
10387;SDS011;5240;51.128;4.566;2022-08-21T00:20:58;8.20;;;4.00;;
10387;SDS011;5240;51.128;4.566;2022-08-21T00:23:25;5.00;;;3.45;;
10387;SDS011;5240;51.128;4.566;2022-08-21T00:25:53;8.25;;;3.90;;
10387;SDS011;5240;51.128;4.566;2022-08-21T00:28:20;8.35;;;3.63;;
10387;SDS011;5240;51.128;4.566;2022-08-21T00:30:47;10.60;;;3.83;;
10387;SDS011;5240;51.128;4.566;2022-08-21T00:33:15;6.90;;;3.88;;
10387;SDS011;5240;51.128;4.566;2022-08-21T00:35:43;11.85;;;4.00;;
10387;SDS011;5240;51.128;4.566;2022-08-21T00:38:11;7.40;;;3.53;;
10387;SDS011;5240;51.128;4.566;2022-08-21T00:40:40;6.05;;;3.45;;
10387;SDS011;5240;51.128;4.566;2022-08-21T00:43:08;6.72;;;3.53;;
10387;SDS011;5240;51.128;4.566;2022-08-21T00:45:36;8.15;;;3.83;;
10387;SDS011;5240;51.128;4.566;2022-08-21T00:48:03;5.57;;;3.10;;
10387;SDS011;5240;51.128;4.566;2022-08-21T00:50:32;8.02;;;3.55;;
10387;SDS011;5240;51.128;4.566;2022-08-21T00:52:59;5.93;;;3.28;;
10387;SDS011;5240;51.128;4.566;2022-08-21T00:55:29;6.13;;;3.22;;
10387;SDS011;5240;51.128;4.566;2022-08-21T00:57:58;10.75;;;3.45;;
10387;SDS011;5240;51.128;4.566;2022-08-21T01:00:26;9.13;;;3.42;;
10387;SDS011;5240;51.128;4.566;2022-08-21T01:02:54;7.68;;;3.28;;
10387;SDS011;5240;51.128;4.566;2022-08-21T01:05:22;6.60;;;3.30;;
10387;SDS011;5240;51.128;4.566;2022-08-21T01:07:49;8.05;;;3.75;;
10387;SDS011;5240;51.128;4.566;2022-08-21T01:10:17;6.82;;;3.35;;
10387;SDS011;5240;51.128;4.566;2022-08-21T01:12:46;6.00;;;3.25;;
10387;SDS011;5240;51.128;4.566;2022-08-21T01:15:13;7.18;;;4.00;;
10387;SDS011;5240;51.128;4.566;2022-08-21T01:17:41;6.38;;;3.58;;
10387;SDS011;5240;51.128;4.566;2022-08-21T01:20:09;9.63;;;3.65;;
10387;SDS011;5240;51.128;4.566;2022-08-21T01:22:38;8.77;;;3.97;;
10387;SDS011;5240;51.128;4.566;2022-08-21T01:25:06;9.02;;;3.92;;
10387;SDS011;5240;51.128;4.566;2022-08-21T01:27:34;7.60;;;3.60;;
10387;SDS011;5240;51.128;4.566;2022-08-21T01:30:04;10.43;;;4.05;;
10387;SDS011;5240;51.128;4.566;2022-08-21T01:32:34;7.18;;;3.33;;
10387;SDS011;5240;51.128;4.566;2022-08-21T01:35:02;6.68;;;3.25;;
10387;SDS011;5240;51.128;4.566;2022-08-21T01:37:30;8.10;;;3.33;;
10387;SDS011;5240;51.128;4.566;2022-08-21T01:39:58;12.13;;;3.80;;
10387;SDS011;5240;51.128;4.566;2022-08-21T01:42:26;6.13;;;3.35;;
10387;SDS011;5240;51.128;4.566;2022-08-21T01:44:53;10.93;;;4.40;;
10387;SDS011;5240;51.128;4.566;2022-08-21T01:47:21;9.05;;;3.67;;
10387;SDS011;5240;51.128;4.566;2022-08-21T01:49:49;5.97;;;3.40;;
10387;SDS011;5240;51.128;4.566;2022-08-21T01:52:16;5.75;;;3.42;;
10387;SDS011;5240;51.128;4.566;2022-08-21T01:54:44;5.13;;;3.20;;
10387;SDS011;5240;51.128;4.566;2022-08-21T01:57:13;9.85;;;3.22;;
10387;SDS011;5240;51.128;4.566;2022-08-21T01:59:40;9.55;;;3.53;;
10387;SDS011;5240;51.128;4.566;2022-08-21T02:02:07;7.18;;;3.40;;
10387;SDS011;5240;51.128;4.566;2022-08-21T02:04:35;6.50;;;3.20;;
10387;SDS011;5240;51.128;4.566;2022-08-21T02:07:02;6.05;;;3.33;;
10387;SDS011;5240;51.128;4.566;2022-08-21T02:09:29;6.05;;;3.20;;
10387;SDS011;5240;51.128;4.566;2022-08-21T02:11:57;6.78;;;3.20;;
10387;SDS011;5240;51.128;4.566;2022-08-21T02:14:25;6.90;;;3.20;;
10387;SDS011;5240;51.128;4.566;2022-08-21T02:16:53;9.50;;;3.40;;
10387;SDS011;5240;51.128;4.566;2022-08-21T02:19:20;7.78;;;3.33;;
10387;SDS011;5240;51.128;4.566;2022-08-21T02:21:47;7.60;;;3.13;;
10387;SDS011;5240;51.128;4.566;2022-08-21T02:24:14;9.52;;;3.60;;
10387;SDS011;5240;51.128;4.566;2022-08-21T02:26:41;6.60;;;2.92;;
10387;SDS011;5240;51.128;4.566;2022-08-21T02:29:09;8.95;;;3.00;;
10387;SDS011;5240;51.128;4.566;2022-08-21T02:31:37;7.93;;;3.00;;
10387;SDS011;5240;51.128;4.566;2022-08-21T02:34:04;7.75;;;2.88;;
10387;SDS011;5240;51.128;4.566;2022-08-21T02:36:32;5.35;;;3.22;;
10387;SDS011;5240;51.128;4.566;2022-08-21T02:38:59;7.15;;;2.90;;
10387;SDS011;5240;51.128;4.566;2022-08-21T02:41:26;8.07;;;3.40;;
10387;SDS011;5240;51.128;4.566;2022-08-21T02:43:54;6.90;;;2.65;;
10387;SDS011;5240;51.128;4.566;2022-08-21T02:46:21;6.97;;;2.90;;
10387;SDS011;5240;51.128;4.566;2022-08-21T02:48:50;6.50;;;2.85;;
10387;SDS011;5240;51.128;4.566;2022-08-21T02:51:18;8.88;;;3.17;;
10387;SDS011;5240;51.128;4.566;2022-08-21T02:53:47;7.28;;;2.85;;
10387;SDS011;5240;51.128;4.566;2022-08-21T02:56:16;6.35;;;3.05;;
10387;SDS011;5240;51.128;4.566;2022-08-21T02:58:44;7.93;;;3.08;;
10387;SDS011;5240;51.128;4.566;2022-08-21T03:01:11;8.50;;;2.95;;
10387;SDS011;5240;51.128;4.566;2022-08-21T03:03:40;8.07;;;3.20;;
10387;SDS011;5240;51.128;4.566;2022-08-21T03:06:09;7.80;;;2.90;;
10387;SDS011;5240;51.128;4.566;2022-08-21T03:08:37;6.22;;;2.63;;
10387;SDS011;5240;51.128;4.566;2022-08-21T03:11:04;9.30;;;3.38;;
10387;SDS011;5240;51.128;4.566;2022-08-21T03:13:32;7.35;;;2.92;;
10387;SDS011;5240;51.128;4.566;2022-08-21T03:16:00;6.82;;;2.92;;
10387;SDS011;5240;51.128;4.566;2022-08-21T03:18:27;6.18;;;2.95;;
10387;SDS011;5240;51.128;4.566;2022-08-21T03:20:54;6.90;;;3.20;;
10387;SDS011;5240;51.128;4.566;2022-08-21T03:23:23;6.72;;;2.95;;
10387;SDS011;5240;51.128;4.566;2022-08-21T03:25:50;7.85;;;3.20;;
10387;SDS011;5240;51.128;4.566;2022-08-21T03:28:20;11.30;;;3.35;;
10387;SDS011;5240;51.128;4.566;2022-08-21T03:30:48;6.85;;;3.10;;
10387;SDS011;5240;51.128;4.566;2022-08-21T03:33:16;7.22;;;2.83;;
10387;SDS011;5240;51.128;4.566;2022-08-21T03:35:43;7.10;;;2.95;;
10387;SDS011;5240;51.128;4.566;2022-08-21T03:38:11;8.25;;;3.30;;
10387;SDS011;5240;51.128;4.566;2022-08-21T03:40:40;7.53;;;2.92;;
10387;SDS011;5240;51.128;4.566;2022-08-21T03:43:07;9.27;;;3.42;;
10387;SDS011;5240;51.128;4.566;2022-08-21T03:45:35;8.55;;;2.92;;
10387;SDS011;5240;51.128;4.566;2022-08-21T03:48:03;8.02;;;3.03;;
10387;SDS011;5240;51.128;4.566;2022-08-21T03:50:32;8.88;;;3.10;;
10387;SDS011;5240;51.128;4.566;2022-08-21T03:52:59;7.95;;;3.30;;
10387;SDS011;5240;51.128;4.566;2022-08-21T03:55:27;7.43;;;3.03;;
10387;SDS011;5240;51.128;4.566;2022-08-21T03:57:55;9.32;;;3.00;;
10387;SDS011;5240;51.128;4.566;2022-08-21T04:00:23;7.57;;;3.15;;
10387;SDS011;5240;51.128;4.566;2022-08-21T04:02:50;9.18;;;3.40;;
10387;SDS011;5240;51.128;4.566;2022-08-21T04:05:18;9.35;;;3.28;;
10387;SDS011;5240;51.128;4.566;2022-08-21T04:07:53;6.15;;;2.85;;
10387;SDS011;5240;51.128;4.566;2022-08-21T04:10:21;5.65;;;2.90;;
10387;SDS011;5240;51.128;4.566;2022-08-21T04:12:48;7.35;;;2.92;;
10387;SDS011;5240;51.128;4.566;2022-08-21T04:15:17;9.40;;;2.97;;
10387;SDS011;5240;51.128;4.566;2022-08-21T04:17:45;7.07;;;2.88;;
10387;SDS011;5240;51.128;4.566;2022-08-21T04:20:13;8.60;;;2.70;;
10387;SDS011;5240;51.128;4.566;2022-08-21T04:22:40;6.90;;;3.20;;
10387;SDS011;5240;51.128;4.566;2022-08-21T04:25:09;7.97;;;3.15;;
10387;SDS011;5240;51.128;4.566;2022-08-21T04:27:37;5.57;;;2.90;;
10387;SDS011;5240;51.128;4.566;2022-08-21T04:30:05;8.65;;;4.10;;
10387;SDS011;5240;51.128;4.566;2022-08-21T04:32:35;6.55;;;3.05;;
10387;SDS011;5240;51.128;4.566;2022-08-21T04:35:05;7.85;;;3.63;;
10387;SDS011;5240;51.128;4.566;2022-08-21T04:37:33;11.40;;;3.50;;
10387;SDS011;5240;51.128;4.566;2022-08-21T04:40:00;6.75;;;3.08;;
10387;SDS011;5240;51.128;4.566;2022-08-21T04:42:27;9.73;;;3.58;;
10387;SDS011;5240;51.128;4.566;2022-08-21T04:44:55;6.22;;;3.20;;
10387;SDS011;5240;51.128;4.566;2022-08-21T04:47:22;5.85;;;3.10;;
10387;SDS011;5240;51.128;4.566;2022-08-21T04:49:51;8.27;;;3.60;;
10387;SDS011;5240;51.128;4.566;2022-08-21T04:52:19;6.20;;;3.10;;
10387;SDS011;5240;51.128;4.566;2022-08-21T04:54:47;10.25;;;3.75;;
10387;SDS011;5240;51.128;4.566;2022-08-21T04:57:17;12.30;;;3.30;;
10387;SDS011;5240;51.128;4.566;2022-08-21T04:59:45;6.47;;;3.17;;
10387;SDS011;5240;51.128;4.566;2022-08-21T05:02:14;6.78;;;3.13;;
10387;SDS011;5240;51.128;4.566;2022-08-21T05:04:43;5.22;;;3.05;;
10387;SDS011;5240;51.128;4.566;2022-08-21T05:07:15;8.13;;;3.17;;
10387;SDS011;5240;51.128;4.566;2022-08-21T05:09:43;9.05;;;3.15;;
10387;SDS011;5240;51.128;4.566;2022-08-21T05:12:10;5.57;;;3.10;;
10387;SDS011;5240;51.128;4.566;2022-08-21T05:14:38;9.00;;;3.20;;
10387;SDS011;5240;51.128;4.566;2022-08-21T05:17:05;5.13;;;3.13;;
10387;SDS011;5240;51.128;4.566;2022-08-21T05:19:32;7.53;;;3.10;;
10387;SDS011;5240;51.128;4.566;2022-08-21T05:22:00;8.57;;;2.97;;
10387;SDS011;5240;51.128;4.566;2022-08-21T05:24:28;7.28;;;3.08;;
10387;SDS011;5240;51.128;4.566;2022-08-21T05:26:56;4.47;;;2.88;;
10387;SDS011;5240;51.128;4.566;2022-08-21T05:29:23;6.72;;;3.00;;
10387;SDS011;5240;51.128;4.566;2022-08-21T05:31:51;10.25;;;3.17;;
10387;SDS011;5240;51.128;4.566;2022-08-21T05:34:19;6.15;;;2.58;;
10387;SDS011;5240;51.128;4.566;2022-08-21T05:36:46;6.38;;;2.95;;
10387;SDS011;5240;51.128;4.566;2022-08-21T05:39:14;6.88;;;3.35;;
10387;SDS011;5240;51.128;4.566;2022-08-21T05:41:42;8.07;;;2.95;;
10387;SDS011;5240;51.128;4.566;2022-08-21T05:44:09;9.63;;;3.08;;
10387;SDS011;5240;51.128;4.566;2022-08-21T05:46:37;11.48;;;3.38;;
10387;SDS011;5240;51.128;4.566;2022-08-21T05:49:04;8.27;;;2.78;;
10387;SDS011;5240;51.128;4.566;2022-08-21T05:51:32;10.20;;;3.10;;
10387;SDS011;5240;51.128;4.566;2022-08-21T05:53:59;7.65;;;2.78;;
10387;SDS011;5240;51.128;4.566;2022-08-21T05:56:26;7.53;;;3.10;;
10387;SDS011;5240;51.128;4.566;2022-08-21T05:58:55;6.05;;;2.67;;
10387;SDS011;5240;51.128;4.566;2022-08-21T06:01:23;13.18;;;3.58;;
10387;SDS011;5240;51.128;4.566;2022-08-21T06:03:50;10.75;;;3.00;;
10387;SDS011;5240;51.128;4.566;2022-08-21T06:06:17;7.90;;;2.90;;
10387;SDS011;5240;51.128;4.566;2022-08-21T06:08:44;9.45;;;2.92;;
10387;SDS011;5240;51.128;4.566;2022-08-21T06:11:12;5.80;;;2.55;;
10387;SDS011;5240;51.128;4.566;2022-08-21T06:13:39;8.68;;;2.92;;
10387;SDS011;5240;51.128;4.566;2022-08-21T06:16:09;6.25;;;2.70;;
10387;SDS011;5240;51.128;4.566;2022-08-21T06:18:37;6.35;;;2.70;;
10387;SDS011;5240;51.128;4.566;2022-08-21T06:21:05;9.55;;;2.75;;
10387;SDS011;5240;51.128;4.566;2022-08-21T06:23:33;9.48;;;2.67;;
10387;SDS011;5240;51.128;4.566;2022-08-21T06:26:00;9.45;;;2.95;;
10387;SDS011;5240;51.128;4.566;2022-08-21T06:28:28;8.63;;;2.80;;
10387;SDS011;5240;51.128;4.566;2022-08-21T06:30:55;10.93;;;3.05;;
10387;SDS011;5240;51.128;4.566;2022-08-21T06:33:23;8.77;;;2.70;;
10387;SDS011;5240;51.128;4.566;2022-08-21T06:35:51;8.55;;;2.67;;
10387;SDS011;5240;51.128;4.566;2022-08-21T06:38:18;10.73;;;3.35;;
10387;SDS011;5240;51.128;4.566;2022-08-21T06:40:45;10.32;;;3.28;;
10387;SDS011;5240;51.128;4.566;2022-08-21T06:43:13;8.90;;;3.00;;
10387;SDS011;5240;51.128;4.566;2022-08-21T06:45:40;8.57;;;2.72;;
10387;SDS011;5240;51.128;4.566;2022-08-21T06:48:08;6.85;;;2.88;;
10387;SDS011;5240;51.128;4.566;2022-08-21T06:50:36;9.48;;;3.15;;
10387;SDS011;5240;51.128;4.566;2022-08-21T06:53:04;9.82;;;3.05;;
10387;SDS011;5240;51.128;4.566;2022-08-21T06:55:32;12.05;;;3.30;;
10387;SDS011;5240;51.128;4.566;2022-08-21T06:58:00;7.25;;;2.60;;
10387;SDS011;5240;51.128;4.566;2022-08-21T07:00:27;9.35;;;3.05;;
10387;SDS011;5240;51.128;4.566;2022-08-21T07:02:54;7.65;;;3.05;;
10387;SDS011;5240;51.128;4.566;2022-08-21T07:05:21;9.23;;;2.88;;
10387;SDS011;5240;51.128;4.566;2022-08-21T07:07:50;10.02;;;3.08;;
10387;SDS011;5240;51.128;4.566;2022-08-21T07:10:17;8.70;;;2.83;;
10387;SDS011;5240;51.128;4.566;2022-08-21T07:12:45;7.43;;;2.80;;
10387;SDS011;5240;51.128;4.566;2022-08-21T07:15:12;7.38;;;3.00;;
10387;SDS011;5240;51.128;4.566;2022-08-21T07:17:39;8.90;;;3.00;;
10387;SDS011;5240;51.128;4.566;2022-08-21T07:20:07;9.73;;;3.20;;
10387;SDS011;5240;51.128;4.566;2022-08-21T07:22:34;10.88;;;3.20;;
10387;SDS011;5240;51.128;4.566;2022-08-21T07:25:04;7.82;;;3.17;;
10387;SDS011;5240;51.128;4.566;2022-08-21T07:27:31;10.32;;;3.33;;
10387;SDS011;5240;51.128;4.566;2022-08-21T07:29:58;7.30;;;2.92;;
10387;SDS011;5240;51.128;4.566;2022-08-21T07:32:26;9.48;;;3.08;;
10387;SDS011;5240;51.128;4.566;2022-08-21T07:34:54;7.15;;;3.05;;
10387;SDS011;5240;51.128;4.566;2022-08-21T07:37:22;10.20;;;3.15;;
10387;SDS011;5240;51.128;4.566;2022-08-21T07:39:49;11.13;;;3.40;;
10387;SDS011;5240;51.128;4.566;2022-08-21T07:42:17;12.80;;;3.30;;
10387;SDS011;5240;51.128;4.566;2022-08-21T07:44:45;10.70;;;3.22;;
10387;SDS011;5240;51.128;4.566;2022-08-21T07:47:12;7.57;;;3.08;;
10387;SDS011;5240;51.128;4.566;2022-08-21T07:49:39;9.80;;;3.10;;
10387;SDS011;5240;51.128;4.566;2022-08-21T07:52:06;9.35;;;3.45;;
10387;SDS011;5240;51.128;4.566;2022-08-21T07:54:34;11.63;;;3.25;;
10387;SDS011;5240;51.128;4.566;2022-08-21T07:57:01;10.18;;;2.78;;
10387;SDS011;5240;51.128;4.566;2022-08-21T07:59:30;10.63;;;3.17;;
10387;SDS011;5240;51.128;4.566;2022-08-21T08:01:57;13.25;;;3.38;;
10387;SDS011;5240;51.128;4.566;2022-08-21T08:04:24;10.30;;;3.03;;
10387;SDS011;5240;51.128;4.566;2022-08-21T08:06:52;12.60;;;2.83;;
10387;SDS011;5240;51.128;4.566;2022-08-21T08:09:19;6.40;;;2.55;;
10387;SDS011;5240;51.128;4.566;2022-08-21T08:11:46;8.27;;;3.05;;
10387;SDS011;5240;51.128;4.566;2022-08-21T08:14:13;11.35;;;3.00;;
10387;SDS011;5240;51.128;4.566;2022-08-21T08:16:43;10.40;;;3.38;;
10387;SDS011;5240;51.128;4.566;2022-08-21T08:19:10;8.90;;;2.75;;
10387;SDS011;5240;51.128;4.566;2022-08-21T08:21:38;15.48;;;2.92;;
10387;SDS011;5240;51.128;4.566;2022-08-21T08:24:05;8.70;;;2.65;;
10387;SDS011;5240;51.128;4.566;2022-08-21T08:26:32;7.50;;;2.45;;
10387;SDS011;5240;51.128;4.566;2022-08-21T08:29:00;8.68;;;2.42;;
10387;SDS011;5240;51.128;4.566;2022-08-21T08:31:27;7.85;;;2.72;;
10387;SDS011;5240;51.128;4.566;2022-08-21T08:33:55;9.00;;;2.60;;
10387;SDS011;5240;51.128;4.566;2022-08-21T08:36:30;8.10;;;2.42;;
10387;SDS011;5240;51.128;4.566;2022-08-21T08:38:58;8.50;;;2.40;;
10387;SDS011;5240;51.128;4.566;2022-08-21T08:41:26;8.70;;;2.67;;
10387;SDS011;5240;51.128;4.566;2022-08-21T08:43:56;11.50;;;2.80;;
10387;SDS011;5240;51.128;4.566;2022-08-21T08:46:26;7.95;;;2.63;;
10387;SDS011;5240;51.128;4.566;2022-08-21T08:49:00;6.55;;;2.58;;
10387;SDS011;5240;51.128;4.566;2022-08-21T08:51:30;10.75;;;2.40;;
10387;SDS011;5240;51.128;4.566;2022-08-21T08:54:02;8.23;;;2.58;;
10387;SDS011;5240;51.128;4.566;2022-08-21T08:56:33;7.63;;;2.33;;
10387;SDS011;5240;51.128;4.566;2022-08-21T08:59:01;7.32;;;2.20;;
10387;SDS011;5240;51.128;4.566;2022-08-21T09:01:29;4.90;;;2.10;;
10387;SDS011;5240;51.128;4.566;2022-08-21T09:03:57;8.82;;;2.33;;
10387;SDS011;5240;51.128;4.566;2022-08-21T09:06:31;4.80;;;2.08;;
10387;SDS011;5240;51.128;4.566;2022-08-21T09:09:02;6.30;;;2.10;;
10387;SDS011;5240;51.128;4.566;2022-08-21T09:11:34;5.50;;;1.98;;
10387;SDS011;5240;51.128;4.566;2022-08-21T09:14:06;6.70;;;2.05;;
10387;SDS011;5240;51.128;4.566;2022-08-21T09:16:39;5.45;;;2.28;;
10387;SDS011;5240;51.128;4.566;2022-08-21T09:19:09;5.32;;;2.13;;
10387;SDS011;5240;51.128;4.566;2022-08-21T09:21:40;6.25;;;2.15;;
10387;SDS011;5240;51.128;4.566;2022-08-21T09:24:16;4.63;;;2.10;;
10387;SDS011;5240;51.128;4.566;2022-08-21T09:26:47;4.97;;;1.80;;
10387;SDS011;5240;51.128;4.566;2022-08-21T09:29:16;6.63;;;2.30;;
10387;SDS011;5240;51.128;4.566;2022-08-21T09:31:45;4.60;;;2.13;;
10387;SDS011;5240;51.128;4.566;2022-08-21T09:34:23;6.85;;;2.10;;
10387;SDS011;5240;51.128;4.566;2022-08-21T09:36:52;6.60;;;2.45;;
10387;SDS011;5240;51.128;4.566;2022-08-21T09:39:23;8.63;;;2.50;;
10387;SDS011;5240;51.128;4.566;2022-08-21T09:41:55;5.30;;;2.05;;
10387;SDS011;5240;51.128;4.566;2022-08-21T09:44:24;6.28;;;2.22;;
10387;SDS011;5240;51.128;4.566;2022-08-21T09:46:52;7.05;;;2.20;;
10387;SDS011;5240;51.128;4.566;2022-08-21T09:49:26;8.60;;;2.53;;
10387;SDS011;5240;51.128;4.566;2022-08-21T09:51:55;6.78;;;2.30;;
10387;SDS011;5240;51.128;4.566;2022-08-21T09:54:25;5.95;;;2.35;;
10387;SDS011;5240;51.128;4.566;2022-08-21T09:56:54;10.65;;;3.00;;
10387;SDS011;5240;51.128;4.566;2022-08-21T09:59:39;10.05;;;2.70;;
10387;SDS011;5240;51.128;4.566;2022-08-21T10:02:19;10.15;;;2.55;;
10387;SDS011;5240;51.128;4.566;2022-08-21T10:04:49;6.65;;;2.38;;
10387;SDS011;5240;51.128;4.566;2022-08-21T10:07:20;6.70;;;2.33;;
10387;SDS011;5240;51.128;4.566;2022-08-21T10:09:57;9.95;;;2.72;;
10387;SDS011;5240;51.128;4.566;2022-08-21T10:12:25;10.95;;;3.00;;
10387;SDS011;5240;51.128;4.566;2022-08-21T10:14:57;9.10;;;2.63;;
10387;SDS011;5240;51.128;4.566;2022-08-21T10:17:30;8.10;;;2.40;;
10387;SDS011;5240;51.128;4.566;2022-08-21T10:20:02;8.10;;;2.42;;
10387;SDS011;5240;51.128;4.566;2022-08-21T10:22:38;5.78;;;2.60;;
10387;SDS011;5240;51.128;4.566;2022-08-21T10:25:09;8.15;;;2.50;;
10387;SDS011;5240;51.128;4.566;2022-08-21T10:27:40;6.85;;;2.70;;
10387;SDS011;5240;51.128;4.566;2022-08-21T10:30:11;8.93;;;2.88;;
10387;SDS011;5240;51.128;4.566;2022-08-21T10:32:46;10.85;;;3.28;;
10387;SDS011;5240;51.128;4.566;2022-08-21T10:35:19;6.65;;;2.70;;
10387;SDS011;5240;51.128;4.566;2022-08-21T10:37:52;6.93;;;2.47;;
10387;SDS011;5240;51.128;4.566;2022-08-21T10:40:24;5.25;;;2.25;;
10387;SDS011;5240;51.128;4.566;2022-08-21T10:42:57;7.75;;;2.85;;
10387;SDS011;5240;51.128;4.566;2022-08-21T10:45:31;16.55;;;3.38;;
10387;SDS011;5240;51.128;4.566;2022-08-21T10:48:01;11.02;;;2.90;;
10387;SDS011;5240;51.128;4.566;2022-08-21T10:50:30;8.02;;;2.80;;
10387;SDS011;5240;51.128;4.566;2022-08-21T10:53:03;9.10;;;2.85;;
10387;SDS011;5240;51.128;4.566;2022-08-21T10:55:33;7.07;;;2.90;;
10387;SDS011;5240;51.128;4.566;2022-08-21T10:58:02;6.68;;;2.40;;
10387;SDS011;5240;51.128;4.566;2022-08-21T11:00:33;6.35;;;3.03;;
10387;SDS011;5240;51.128;4.566;2022-08-21T11:03:03;9.07;;;2.80;;
10387;SDS011;5240;51.128;4.566;2022-08-21T11:05:31;7.00;;;2.78;;
10387;SDS011;5240;51.128;4.566;2022-08-21T11:08:04;8.70;;;2.72;;
10387;SDS011;5240;51.128;4.566;2022-08-21T11:10:35;8.50;;;2.80;;
10387;SDS011;5240;51.128;4.566;2022-08-21T11:13:04;6.60;;;2.65;;
10387;SDS011;5240;51.128;4.566;2022-08-21T11:15:36;12.35;;;3.15;;
10387;SDS011;5240;51.128;4.566;2022-08-21T11:18:08;8.30;;;2.70;;
10387;SDS011;5240;51.128;4.566;2022-08-21T11:20:38;9.10;;;2.95;;
10387;SDS011;5240;51.128;4.566;2022-08-21T11:23:11;11.02;;;2.80;;
10387;SDS011;5240;51.128;4.566;2022-08-21T11:25:41;9.98;;;2.75;;
10387;SDS011;5240;51.128;4.566;2022-08-21T11:28:10;7.50;;;2.60;;
10387;SDS011;5240;51.128;4.566;2022-08-21T11:30:44;8.45;;;3.13;;
10387;SDS011;5240;51.128;4.566;2022-08-21T11:33:22;8.98;;;2.78;;
10387;SDS011;5240;51.128;4.566;2022-08-21T11:35:52;6.43;;;2.45;;
10387;SDS011;5240;51.128;4.566;2022-08-21T11:38:27;6.40;;;2.63;;
10387;SDS011;5240;51.128;4.566;2022-08-21T11:41:06;11.75;;;3.72;;
10387;SDS011;5240;51.128;4.566;2022-08-21T11:43:36;7.95;;;2.67;;
10387;SDS011;5240;51.128;4.566;2022-08-21T11:46:11;9.70;;;3.30;;
10387;SDS011;5240;51.128;4.566;2022-08-21T11:48:43;8.73;;;2.97;;
10387;SDS011;5240;51.128;4.566;2022-08-21T11:51:13;8.50;;;2.90;;
10387;SDS011;5240;51.128;4.566;2022-08-21T11:53:43;8.57;;;3.03;;
10387;SDS011;5240;51.128;4.566;2022-08-21T11:56:17;8.45;;;2.70;;
10387;SDS011;5240;51.128;4.566;2022-08-21T11:58:46;7.82;;;2.85;;
10387;SDS011;5240;51.128;4.566;2022-08-21T12:01:15;7.65;;;2.88;;
10387;SDS011;5240;51.128;4.566;2022-08-21T12:03:51;9.77;;;2.85;;
10387;SDS011;5240;51.128;4.566;2022-08-21T12:06:27;5.30;;;2.45;;
10387;SDS011;5240;51.128;4.566;2022-08-21T12:08:59;8.65;;;2.72;;
10387;SDS011;5240;51.128;4.566;2022-08-21T12:11:26;10.25;;;2.90;;
10387;SDS011;5240;51.128;4.566;2022-08-21T12:13:54;8.52;;;3.10;;
10387;SDS011;5240;51.128;4.566;2022-08-21T12:16:28;9.13;;;3.08;;
10387;SDS011;5240;51.128;4.566;2022-08-21T12:19:02;8.90;;;3.08;;
10387;SDS011;5240;51.128;4.566;2022-08-21T12:21:30;12.90;;;3.78;;
10387;SDS011;5240;51.128;4.566;2022-08-21T12:24:03;8.05;;;2.80;;
10387;SDS011;5240;51.128;4.566;2022-08-21T12:26:31;6.47;;;2.95;;
10387;SDS011;5240;51.128;4.566;2022-08-21T12:29:07;8.82;;;2.78;;
10387;SDS011;5240;51.128;4.566;2022-08-21T12:31:46;10.15;;;3.00;;
10387;SDS011;5240;51.128;4.566;2022-08-21T12:34:14;7.55;;;2.58;;
10387;SDS011;5240;51.128;4.566;2022-08-21T12:36:43;6.60;;;3.22;;
10387;SDS011;5240;51.128;4.566;2022-08-21T12:39:12;8.13;;;2.88;;
10387;SDS011;5240;51.128;4.566;2022-08-21T12:41:44;12.73;;;3.35;;
10387;SDS011;5240;51.128;4.566;2022-08-21T12:44:13;12.20;;;2.90;;
10387;SDS011;5240;51.128;4.566;2022-08-21T12:46:43;8.52;;;2.97;;
10387;SDS011;5240;51.128;4.566;2022-08-21T12:49:13;8.75;;;3.05;;
10387;SDS011;5240;51.128;4.566;2022-08-21T12:51:46;7.25;;;2.92;;
10387;SDS011;5240;51.128;4.566;2022-08-21T12:54:23;11.02;;;2.92;;
10387;SDS011;5240;51.128;4.566;2022-08-21T12:57:01;8.25;;;2.92;;
10387;SDS011;5240;51.128;4.566;2022-08-21T12:59:29;6.97;;;2.67;;
10387;SDS011;5240;51.128;4.566;2022-08-21T13:01:57;7.88;;;2.60;;
10387;SDS011;5240;51.128;4.566;2022-08-21T13:04:26;6.80;;;2.80;;
10387;SDS011;5240;51.128;4.566;2022-08-21T13:06:55;6.60;;;2.35;;
10387;SDS011;5240;51.128;4.566;2022-08-21T13:09:28;7.13;;;2.40;;
10387;SDS011;5240;51.128;4.566;2022-08-21T13:11:56;8.75;;;3.20;;
10387;SDS011;5240;51.128;4.566;2022-08-21T13:14:25;10.15;;;2.85;;
10387;SDS011;5240;51.128;4.566;2022-08-21T13:16:54;8.00;;;2.70;;
10387;SDS011;5240;51.128;4.566;2022-08-21T13:19:22;10.77;;;2.80;;
10387;SDS011;5240;51.128;4.566;2022-08-21T13:21:50;8.30;;;2.58;;
10387;SDS011;5240;51.128;4.566;2022-08-21T13:24:19;7.43;;;2.63;;
10387;SDS011;5240;51.128;4.566;2022-08-21T13:26:49;10.50;;;2.92;;
10387;SDS011;5240;51.128;4.566;2022-08-21T13:29:17;7.95;;;2.60;;
10387;SDS011;5240;51.128;4.566;2022-08-21T13:31:47;6.57;;;2.70;;
10387;SDS011;5240;51.128;4.566;2022-08-21T13:34:14;8.07;;;2.90;;
10387;SDS011;5240;51.128;4.566;2022-08-21T13:36:42;8.60;;;2.47;;
10387;SDS011;5240;51.128;4.566;2022-08-21T13:39:12;8.57;;;2.75;;
10387;SDS011;5240;51.128;4.566;2022-08-21T13:41:43;5.20;;;2.30;;
10387;SDS011;5240;51.128;4.566;2022-08-21T13:44:15;9.75;;;2.70;;
10387;SDS011;5240;51.128;4.566;2022-08-21T13:46:43;8.52;;;2.90;;
10387;SDS011;5240;51.128;4.566;2022-08-21T13:49:12;10.73;;;2.80;;
10387;SDS011;5240;51.128;4.566;2022-08-21T13:51:40;8.20;;;2.45;;
10387;SDS011;5240;51.128;4.566;2022-08-21T13:54:14;7.38;;;2.40;;
10387;SDS011;5240;51.128;4.566;2022-08-21T13:56:43;7.97;;;2.53;;
10387;SDS011;5240;51.128;4.566;2022-08-21T13:59:10;6.85;;;2.83;;
10387;SDS011;5240;51.128;4.566;2022-08-21T14:01:48;4.95;;;2.50;;
10387;SDS011;5240;51.128;4.566;2022-08-21T14:04:18;11.07;;;2.83;;
10387;SDS011;5240;51.128;4.566;2022-08-21T14:06:47;5.75;;;1.92;;
10387;SDS011;5240;51.128;4.566;2022-08-21T14:09:23;7.53;;;2.65;;
10387;SDS011;5240;51.128;4.566;2022-08-21T14:11:52;6.80;;;2.65;;
10387;SDS011;5240;51.128;4.566;2022-08-21T14:14:22;6.28;;;2.55;;
10387;SDS011;5240;51.128;4.566;2022-08-21T14:16:54;6.75;;;2.63;;
10387;SDS011;5240;51.128;4.566;2022-08-21T14:19:23;5.85;;;2.25;;
10387;SDS011;5240;51.128;4.566;2022-08-21T14:21:53;7.65;;;2.70;;
10387;SDS011;5240;51.128;4.566;2022-08-21T14:24:27;5.07;;;2.10;;
10387;SDS011;5240;51.128;4.566;2022-08-21T14:26:56;9.52;;;2.80;;
10387;SDS011;5240;51.128;4.566;2022-08-21T14:29:25;7.82;;;2.78;;
10387;SDS011;5240;51.128;4.566;2022-08-21T14:31:55;8.82;;;2.28;;
10387;SDS011;5240;51.128;4.566;2022-08-21T14:34:26;6.68;;;2.97;;
10387;SDS011;5240;51.128;4.566;2022-08-21T14:36:54;6.97;;;2.40;;
10387;SDS011;5240;51.128;4.566;2022-08-21T14:39:22;6.20;;;2.60;;
10387;SDS011;5240;51.128;4.566;2022-08-21T14:41:56;5.50;;;2.72;;
10387;SDS011;5240;51.128;4.566;2022-08-21T14:44:26;8.75;;;2.83;;
10387;SDS011;5240;51.128;4.566;2022-08-21T14:46:54;6.05;;;2.60;;
10387;SDS011;5240;51.128;4.566;2022-08-21T14:49:25;7.47;;;2.58;;
10387;SDS011;5240;51.128;4.566;2022-08-21T14:51:53;7.07;;;2.50;;
10387;SDS011;5240;51.128;4.566;2022-08-21T14:54:22;7.78;;;2.70;;
10387;SDS011;5240;51.128;4.566;2022-08-21T14:56:51;7.25;;;2.47;;
10387;SDS011;5240;51.128;4.566;2022-08-21T14:59:19;7.97;;;2.97;;
10387;SDS011;5240;51.128;4.566;2022-08-21T15:01:48;7.75;;;2.70;;
10387;SDS011;5240;51.128;4.566;2022-08-21T15:04:17;8.65;;;2.70;;
10387;SDS011;5240;51.128;4.566;2022-08-21T15:06:44;6.20;;;2.72;;
10387;SDS011;5240;51.128;4.566;2022-08-21T15:09:11;6.28;;;2.55;;
10387;SDS011;5240;51.128;4.566;2022-08-21T15:11:39;6.93;;;2.85;;